createdAt,value
2019-02-09T00:00:27.812Z,33.58
2019-02-09T00:01:27.809Z,33.58
2019-02-09T00:02:27.783Z,34.59
2019-02-09T00:03:27.795Z,33.79
2019-02-09T00:04:27.758Z,33.67
2019-02-09T00:05:27.735Z,34.39
2019-02-09T00:06:27.745Z,33.49
2019-02-09T00:07:27.722Z,34.09
2019-02-09T00:08:27.703Z,34.19
2019-02-09T00:09:27.709Z,33.99
2019-02-09T00:10:27.699Z,34.28
2019-02-09T00:11:27.719Z,34.19
2019-02-09T00:12:27.662Z,34.39
2019-02-09T00:13:27.643Z,33.17
2019-02-09T00:14:27.636Z,33.47
2019-02-09T00:15:27.626Z,33.17
2019-02-09T00:16:27.655Z,33.78
2019-02-09T00:17:27.703Z,33.07
2019-02-09T00:18:27.589Z,33.47
2019-02-09T00:19:27.579Z,33.47
2019-02-09T00:20:27.594Z,33.47
2019-02-09T00:21:27.556Z,33.78
2019-02-09T00:22:27.555Z,33.07
2019-02-09T00:23:27.556Z,32.97
2019-02-09T00:24:27.527Z,33.17
2019-02-09T00:25:27.528Z,33.28
2019-02-09T00:26:27.498Z,33.16
2019-02-09T00:27:27.499Z,32.87
2019-02-09T00:28:27.491Z,33.07
2019-02-09T00:29:27.477Z,33.47
2019-02-09T00:30:27.468Z,33.78
2019-02-09T00:31:27.441Z,33.79
2019-02-09T00:32:27.446Z,33.17
2019-02-09T00:33:27.425Z,33.78
2019-02-09T00:34:28.080Z,33.47
2019-02-09T00:35:27.446Z,33.17
2019-02-09T00:36:27.416Z,32.97
2019-02-09T00:37:27.386Z,33.78
2019-02-09T00:38:27.372Z,33.37
2019-02-09T00:39:27.352Z,33.07
2019-02-09T00:40:27.348Z,33.17
2019-02-09T00:41:27.367Z,33.37
2019-02-09T00:42:27.331Z,33.29
2019-02-09T00:43:27.311Z,33.69
2019-02-09T00:44:27.327Z,33.17
2019-02-09T00:45:27.287Z,33.47
2019-02-09T00:46:27.298Z,33.19
2019-02-09T00:47:27.299Z,33.67
2019-02-09T00:48:27.251Z,33.99
2019-02-09T00:49:27.249Z,33.69
2019-02-09T00:50:27.243Z,33.09
2019-02-09T00:51:27.221Z,33.29
2019-02-09T00:52:27.219Z,33.39
2019-02-09T00:53:27.193Z,33.49
2019-02-09T00:54:27.210Z,33.19
2019-02-09T00:55:27.270Z,33.39
2019-02-09T00:56:27.161Z,33.89
2019-02-09T00:57:27.178Z,33.69
2019-02-09T00:58:27.143Z,33.19
2019-02-09T00:59:27.148Z,33.17
2019-02-09T01:00:27.118Z,33.28
2019-02-09T01:01:27.111Z,33.47
2019-02-09T01:02:27.111Z,33.67
2019-02-09T01:03:27.098Z,33.67
2019-02-09T01:04:27.076Z,33.67
2019-02-09T01:05:27.072Z,33.78
2019-02-09T01:06:27.049Z,33.37
2019-02-09T01:07:27.043Z,33.37
2019-02-09T01:08:27.055Z,33.47
2019-02-09T01:09:27.026Z,33.58
2019-02-09T01:10:27.004Z,32.99
2019-02-09T01:11:26.998Z,33.28
2019-02-09T01:12:26.986Z,33.09
2019-02-09T01:13:26.976Z,33.07
2019-02-09T01:14:26.966Z,33.78
2019-02-09T01:15:26.968Z,33.39
2019-02-09T01:16:26.937Z,33.17
2019-02-09T01:17:26.958Z,33.17
2019-02-09T01:18:26.926Z,33.17
2019-02-09T01:19:26.901Z,33.98
2019-02-09T01:20:26.910Z,33.47
2019-02-09T01:21:26.880Z,33.17
2019-02-09T01:22:26.950Z,33.07
2019-02-09T01:23:26.866Z,33.19
2019-02-09T01:24:26.846Z,34.39
2019-02-09T01:25:26.919Z,33.98
2019-02-09T01:26:26.823Z,33.19
2019-02-09T01:27:26.811Z,33.89
2019-02-09T01:28:26.839Z,33.09
2019-02-09T01:29:26.799Z,33.19
2019-02-09T01:30:26.828Z,33.09
2019-02-09T01:31:26.784Z,33.09
2019-02-09T01:32:26.768Z,34.49
2019-02-09T01:33:26.756Z,33.79
2019-02-09T01:34:26.744Z,33.99
2019-02-09T01:35:26.735Z,34.19
2019-02-09T01:36:26.717Z,34.49
2019-02-09T01:37:26.803Z,33.98
2019-02-09T01:38:26.699Z,34.58
2019-02-09T01:39:26.683Z,34.59
2019-02-09T01:40:26.666Z,34.38
2019-02-09T01:41:26.683Z,34.39
2019-02-09T01:42:26.661Z,34.49
2019-02-09T01:43:26.745Z,33.59
2019-02-09T01:44:26.669Z,34.19
2019-02-09T01:45:26.634Z,34.80
2019-02-09T01:46:26.634Z,33.99
2019-02-09T01:47:26.590Z,34.19
2019-02-09T01:48:26.593Z,33.59
2019-02-09T01:49:26.576Z,34.29
2019-02-09T01:50:26.594Z,34.29
2019-02-09T01:51:26.563Z,34.29
2019-02-09T01:52:26.568Z,34.29
2019-02-09T01:53:26.561Z,34.29
2019-02-09T01:54:26.546Z,34.29
2019-02-09T01:55:26.561Z,34.09
2019-02-09T01:56:26.574Z,33.99
2019-02-09T01:57:26.500Z,34.59
2019-02-09T01:58:26.474Z,34.19
2019-02-09T01:59:26.455Z,34.59
2019-02-09T02:00:26.442Z,34.58
2019-02-09T02:01:26.433Z,33.59
2019-02-09T02:02:26.471Z,33.99
2019-02-09T02:03:26.454Z,33.99
2019-02-09T02:04:26.407Z,33.98
2019-02-09T02:05:26.429Z,33.58
2019-02-09T02:06:26.380Z,34.69
2019-02-09T02:07:26.372Z,34.29
2019-02-09T02:08:26.362Z,34.48
2019-02-09T02:09:26.342Z,33.98
2019-02-09T02:10:26.355Z,33.89
2019-02-09T02:11:26.329Z,33.59
2019-02-09T02:12:26.339Z,33.99
2019-02-09T02:13:26.329Z,34.39
2019-02-09T02:14:26.332Z,33.99
2019-02-09T02:15:26.298Z,34.59
2019-02-09T02:16:26.269Z,33.49
2019-02-09T02:17:26.261Z,33.69
2019-02-09T02:18:26.303Z,34.09
2019-02-09T02:19:26.297Z,34.29
2019-02-09T02:20:26.262Z,33.49
2019-02-09T02:21:26.205Z,33.99
2019-02-09T02:22:26.201Z,34.19
2019-02-09T02:23:26.194Z,33.59
2019-02-09T02:24:26.176Z,33.99
2019-02-09T02:25:26.197Z,33.89
2019-02-09T02:26:26.159Z,34.80
2019-02-09T02:27:26.141Z,34.39
2019-02-09T02:28:26.168Z,34.19
2019-02-09T02:29:26.132Z,33.09
2019-02-09T02:30:26.108Z,33.89
2019-02-09T02:31:26.138Z,33.49
2019-02-09T02:32:26.103Z,33.51
2019-02-09T02:33:26.162Z,33.71
2019-02-09T02:34:26.080Z,33.81
2019-02-09T02:35:26.054Z,34.01
2019-02-09T02:36:26.036Z,33.81
2019-02-09T02:37:26.033Z,33.99
2019-02-09T02:38:26.018Z,34.51
2019-02-09T02:39:26.014Z,33.91
2019-02-09T02:40:25.993Z,33.91
2019-02-09T02:41:25.984Z,34.09
2019-02-09T02:42:25.978Z,33.69
2019-02-09T02:43:25.971Z,33.61
2019-02-09T02:44:25.955Z,33.69
2019-02-09T02:45:25.965Z,33.49
2019-02-09T02:46:25.934Z,32.89
2019-02-09T02:47:25.914Z,33.39
2019-02-09T02:48:25.917Z,33.49
2019-02-09T02:49:25.928Z,33.19
2019-02-09T02:50:25.890Z,33.99
2019-02-09T02:51:25.873Z,34.39
2019-02-09T02:52:25.877Z,33.59
2019-02-09T02:53:25.865Z,33.89
2019-02-09T02:54:25.847Z,33.69
2019-02-09T02:55:25.931Z,33.99
2019-02-09T02:56:25.843Z,33.19
2019-02-09T02:57:25.800Z,33.89
2019-02-09T02:58:25.798Z,33.79
2019-02-09T02:59:25.797Z,33.89
2019-02-09T03:00:32.175Z,34.59
2019-02-09T03:01:26.761Z,34.19
2019-02-09T03:02:25.748Z,32.99
2019-02-09T03:03:25.798Z,34.49
2019-02-09T03:04:25.755Z,34.49
2019-02-09T03:05:25.717Z,33.29
2019-02-09T03:06:25.701Z,34.69
2019-02-09T03:07:25.710Z,33.99
2019-02-09T03:08:25.677Z,33.20
2019-02-09T03:09:25.682Z,33.49
2019-02-09T03:10:25.723Z,34.49
2019-02-09T03:11:25.645Z,34.51
2019-02-09T03:12:25.636Z,34.69
2019-02-09T03:13:25.625Z,34.69
2019-02-09T03:14:25.622Z,34.51
2019-02-09T03:15:25.605Z,34.09
2019-02-09T03:16:25.614Z,34.09
2019-02-09T03:17:25.574Z,33.89
2019-02-09T03:18:25.568Z,34.19
2019-02-09T03:19:25.563Z,33.39
2019-02-09T03:20:25.550Z,33.99
2019-02-09T03:21:25.536Z,34.49
2019-02-09T03:22:25.566Z,34.39
2019-02-09T03:23:25.507Z,34.49
2019-02-09T03:24:25.574Z,34.09
2019-02-09T03:25:25.577Z,34.09
2019-02-09T03:26:25.475Z,34.29
2019-02-09T03:27:25.471Z,34.31
2019-02-09T03:28:25.461Z,34.19
2019-02-09T03:29:25.477Z,33.89
2019-02-09T03:30:25.432Z,34.29
2019-02-09T03:31:25.429Z,34.39
2019-02-09T03:32:25.464Z,33.99
2019-02-09T03:33:25.404Z,34.89
2019-02-09T03:34:25.397Z,34.29
2019-02-09T03:35:25.399Z,33.29
2019-02-09T03:36:25.397Z,34.09
2019-02-09T03:37:25.353Z,34.09
2019-02-09T03:38:25.347Z,34.49
2019-02-09T03:39:25.349Z,34.59
2019-02-09T03:40:25.316Z,34.39
2019-02-09T03:41:25.317Z,34.09
2019-02-09T03:42:25.335Z,34.29
2019-02-09T03:43:25.289Z,34.39
2019-02-09T03:44:25.308Z,33.79
2019-02-09T03:45:25.269Z,34.29
2019-02-09T03:46:25.256Z,34.19
2019-02-09T03:47:25.242Z,33.99
2019-02-09T03:48:25.281Z,33.99
2019-02-09T03:49:25.227Z,34.09
2019-02-09T03:50:25.205Z,34.49
2019-02-09T03:51:25.197Z,34.59
2019-02-09T03:52:25.186Z,33.99
2019-02-09T03:53:25.170Z,34.09
2019-02-09T03:54:25.181Z,33.99
2019-02-09T03:55:29.957Z,34.19
2019-02-09T03:56:25.149Z,34.39
2019-02-09T03:57:25.141Z,34.19
2019-02-09T03:58:25.138Z,34.19
2019-02-09T03:59:25.113Z,33.69
2019-02-09T04:00:25.094Z,34.49
2019-02-09T04:01:25.097Z,34.29
2019-02-09T04:02:25.075Z,34.69
2019-02-09T04:03:25.091Z,34.89
2019-02-09T04:04:25.102Z,34.61
2019-02-09T04:05:25.044Z,34.71
2019-02-09T04:06:25.034Z,34.29
2019-02-09T04:07:25.067Z,34.41
2019-02-09T04:08:25.011Z,34.71
2019-02-09T04:09:25.000Z,34.61
2019-02-09T04:10:24.996Z,34.41
2019-02-09T04:11:24.989Z,34.89
2019-02-09T04:12:24.968Z,34.91
2019-02-09T04:13:24.964Z,34.91
2019-02-09T04:14:24.993Z,34.81
2019-02-09T04:15:24.926Z,34.71
2019-02-09T04:16:24.916Z,34.51
2019-02-09T04:17:24.925Z,34.31
2019-02-09T04:18:24.915Z,34.91
2019-02-09T04:19:24.891Z,34.69
2019-02-09T04:20:24.880Z,34.61
2019-02-09T04:21:24.858Z,33.99
2019-02-09T04:22:24.872Z,34.69
2019-02-09T04:23:24.924Z,33.89
2019-02-09T04:24:24.836Z,34.69
2019-02-09T04:25:24.858Z,34.49
2019-02-09T04:26:24.805Z,33.69
2019-02-09T04:27:24.826Z,34.39
2019-02-09T04:28:24.777Z,34.49
2019-02-09T04:29:24.770Z,34.39
2019-02-09T04:30:24.767Z,34.49
2019-02-09T04:31:24.773Z,33.89
2019-02-09T04:32:24.738Z,34.59
2019-02-09T04:33:24.724Z,34.49
2019-02-09T04:34:24.713Z,34.80
2019-02-09T04:35:24.711Z,34.69
2019-02-09T04:36:24.697Z,34.39
2019-02-09T04:37:24.728Z,34.09
2019-02-09T04:38:24.675Z,34.31
2019-02-09T04:39:24.661Z,33.79
2019-02-09T04:40:24.655Z,34.59
2019-02-09T04:41:24.632Z,34.69
2019-02-09T04:42:24.626Z,34.49
2019-02-09T04:43:24.648Z,34.49
2019-02-09T04:44:24.597Z,34.39
2019-02-09T04:45:24.605Z,34.39
2019-02-09T04:46:24.583Z,34.19
2019-02-09T04:47:24.570Z,34.09
2019-02-09T04:48:24.574Z,34.69
2019-02-09T04:49:24.548Z,34.19
2019-02-09T04:50:24.562Z,33.79
2019-02-09T04:51:24.574Z,34.19
2019-02-09T04:52:24.526Z,33.81
2019-02-09T04:53:24.507Z,34.71
2019-02-09T04:54:24.494Z,34.11
2019-02-09T04:55:24.605Z,34.51
2019-02-09T04:56:24.487Z,34.61
2019-02-09T04:57:24.478Z,34.89
2019-02-09T04:58:24.448Z,34.80
2019-02-09T04:59:24.429Z,34.49
2019-02-09T05:00:24.431Z,34.09
2019-02-09T05:01:24.417Z,34.19
2019-02-09T05:02:24.396Z,34.19
2019-02-09T05:03:24.425Z,34.19
2019-02-09T05:04:24.424Z,34.59
2019-02-09T05:05:24.395Z,34.69
2019-02-09T05:06:24.356Z,34.81
2019-02-09T05:07:24.377Z,34.59
2019-02-09T05:08:24.345Z,34.51
2019-02-09T05:09:24.349Z,34.81
2019-02-09T05:10:24.331Z,34.71
2019-02-09T05:11:24.294Z,34.19
2019-02-09T05:12:24.310Z,33.59
2019-02-09T05:13:24.270Z,34.29
2019-02-09T05:14:24.259Z,34.09
2019-02-09T05:15:24.275Z,34.29
2019-02-09T05:16:24.238Z,34.59
2019-02-09T05:17:24.263Z,34.39
2019-02-09T05:18:24.231Z,34.39
2019-02-09T05:19:24.217Z,34.39
2019-02-09T05:20:24.851Z,34.39
2019-02-09T05:21:24.184Z,34.39
2019-02-09T05:22:24.171Z,34.09
2019-02-09T05:23:24.159Z,34.29
2019-02-09T05:24:24.173Z,34.09
2019-02-09T05:25:24.245Z,34.49
2019-02-09T05:26:24.129Z,34.29
2019-02-09T05:27:24.114Z,33.99
2019-02-09T05:28:24.103Z,34.29
2019-02-09T05:29:24.096Z,33.99
2019-02-09T05:30:24.086Z,34.80
2019-02-09T05:31:24.100Z,33.91
2019-02-09T05:32:24.098Z,34.81
2019-02-09T05:33:24.048Z,34.11
2019-02-09T05:34:24.037Z,33.99
2019-02-09T05:35:24.071Z,34.69
2019-02-09T05:36:24.021Z,34.71
2019-02-09T05:37:24.003Z,34.69
2019-02-09T05:38:24.036Z,34.91
2019-02-09T05:39:24.002Z,34.59
2019-02-09T05:40:24.000Z,34.51
2019-02-09T05:41:23.970Z,34.31
2019-02-09T05:42:23.978Z,34.41
2019-02-09T05:43:23.943Z,34.51
2019-02-09T05:44:23.940Z,34.41
2019-02-09T05:45:23.928Z,34.01
2019-02-09T05:46:23.906Z,34.41
2019-02-09T05:47:23.890Z,34.41
2019-02-09T05:48:23.906Z,34.31
2019-02-09T05:49:23.876Z,34.81
2019-02-09T05:50:23.927Z,34.31
2019-02-09T05:51:23.853Z,34.41
2019-02-09T05:52:23.832Z,34.51
2019-02-09T05:53:23.830Z,34.31
2019-02-09T05:54:23.809Z,34.51
2019-02-09T05:55:23.878Z,34.41
2019-02-09T05:56:23.803Z,34.71
2019-02-09T05:57:23.795Z,34.11
2019-02-09T05:58:23.782Z,34.31
2019-02-09T05:59:23.756Z,34.51
2019-02-09T06:00:23.744Z,35.01
2019-02-09T06:01:31.654Z,34.91
2019-02-09T06:02:24.722Z,34.71
2019-02-09T06:03:23.709Z,34.71
2019-02-09T06:04:23.853Z,34.01
2019-02-09T06:05:23.716Z,34.11
2019-02-09T06:06:23.713Z,33.89
2019-02-09T06:07:23.671Z,34.91
2019-02-09T06:08:23.664Z,34.91
2019-02-09T06:09:23.642Z,34.01
2019-02-09T06:10:23.651Z,33.91
2019-02-09T06:11:23.652Z,34.39
2019-02-09T06:12:23.622Z,34.41
2019-02-09T06:13:23.618Z,34.61
2019-02-09T06:14:23.597Z,34.11
2019-02-09T06:15:23.580Z,34.01
2019-02-09T06:16:23.591Z,33.91
2019-02-09T06:17:23.609Z,33.91
2019-02-09T06:18:23.546Z,34.01
2019-02-09T06:19:23.550Z,34.01
2019-02-09T06:20:23.518Z,34.31
2019-02-09T06:21:23.523Z,34.31
2019-02-09T06:22:23.518Z,34.61
2019-02-09T06:23:23.502Z,34.11
2019-02-09T06:24:23.492Z,34.31
2019-02-09T06:25:23.581Z,34.51
2019-02-09T06:26:23.530Z,34.61
2019-02-09T06:27:23.494Z,34.61
2019-02-09T06:28:23.442Z,34.81
2019-02-09T06:29:23.430Z,34.71
2019-02-09T06:30:23.505Z,34.41
2019-02-09T06:31:23.415Z,34.41
2019-02-09T06:32:23.397Z,34.41
2019-02-09T06:33:23.397Z,34.81
2019-02-09T06:34:23.383Z,34.61
2019-02-09T06:35:23.362Z,34.11
2019-02-09T06:36:23.489Z,34.51
2019-02-09T06:37:23.330Z,33.71
2019-02-09T06:38:23.350Z,34.11
2019-02-09T06:39:23.317Z,34.71
2019-02-09T06:40:23.304Z,34.71
2019-02-09T06:41:23.327Z,34.01
2019-02-09T06:42:23.275Z,34.41
2019-02-09T06:43:23.263Z,34.21
2019-02-09T06:44:23.261Z,34.61
2019-02-09T06:45:23.250Z,34.61
2019-02-09T06:46:23.244Z,34.61
2019-02-09T06:47:23.238Z,34.21
2019-02-09T06:48:23.256Z,34.51
2019-02-09T06:49:23.198Z,34.91
2019-02-09T06:50:23.185Z,34.61
2019-02-09T06:51:23.211Z,34.91
2019-02-09T06:52:23.177Z,33.81
2019-02-09T06:53:23.158Z,33.91
2019-02-09T06:54:23.149Z,34.41
2019-02-09T06:55:23.175Z,34.69
2019-02-09T06:56:23.149Z,34.39
2019-02-09T06:57:23.101Z,34.49
2019-02-09T06:58:23.096Z,33.99
2019-02-09T06:59:23.089Z,33.79
2019-02-09T07:00:23.081Z,33.79
2019-02-09T07:01:23.088Z,34.49
2019-02-09T07:02:23.051Z,33.49
2019-02-09T07:03:23.066Z,33.49
2019-02-09T07:04:23.026Z,33.49
2019-02-09T07:05:23.059Z,34.49
2019-02-09T07:06:23.012Z,33.79
2019-02-09T07:07:22.992Z,34.29
2019-02-09T07:08:22.999Z,34.21
2019-02-09T07:09:22.997Z,34.31
2019-02-09T07:10:22.963Z,34.11
2019-02-09T07:11:22.960Z,34.31
2019-02-09T07:12:22.934Z,34.11
2019-02-09T07:13:23.007Z,34.11
2019-02-09T07:14:22.918Z,34.51
2019-02-09T07:15:22.903Z,34.71
2019-02-09T07:16:22.904Z,34.11
2019-02-09T07:17:22.877Z,34.11
2019-02-09T07:18:22.873Z,34.51
2019-02-09T07:19:22.873Z,34.51
2019-02-09T07:20:22.860Z,34.41
2019-02-09T07:21:22.843Z,34.51
2019-02-09T07:22:22.831Z,34.11
2019-02-09T07:23:22.826Z,34.21
2019-02-09T07:24:22.799Z,34.31
2019-02-09T07:25:22.899Z,34.11
2019-02-09T07:26:22.802Z,34.41
2019-02-09T07:27:22.814Z,34.31
2019-02-09T07:28:22.754Z,34.21
2019-02-09T07:29:22.746Z,34.51
2019-02-09T07:30:22.733Z,34.61
2019-02-09T07:31:22.719Z,33.71
2019-02-09T07:32:22.724Z,33.71
2019-02-09T07:33:22.758Z,34.11
2019-02-09T07:34:22.688Z,34.51
2019-02-09T07:35:22.675Z,34.51
2019-02-09T07:36:22.669Z,34.61
2019-02-09T07:37:22.660Z,33.81
2019-02-09T07:38:22.650Z,34.41
2019-02-09T07:39:22.644Z,33.81
2019-02-09T07:40:22.648Z,33.71
2019-02-09T07:41:22.609Z,33.51
2019-02-09T07:42:22.612Z,33.40
2019-02-09T07:43:22.585Z,33.99
2019-02-09T07:44:22.582Z,33.81
2019-02-09T07:45:22.628Z,33.39
2019-02-09T07:46:22.585Z,34.39
2019-02-09T07:47:22.594Z,33.89
2019-02-09T07:48:24.088Z,33.09
2019-02-09T07:49:22.520Z,33.79
2019-02-09T07:50:22.521Z,33.19
2019-02-09T07:51:22.494Z,33.49
2019-02-09T07:52:22.497Z,33.69
2019-02-09T07:53:22.510Z,33.39
2019-02-09T07:54:22.484Z,33.39
2019-02-09T07:55:22.546Z,33.29
2019-02-09T07:56:22.445Z,33.39
2019-02-09T07:57:22.438Z,33.39
2019-02-09T07:58:22.455Z,33.79
2019-02-09T07:59:22.402Z,33.89
2019-02-09T08:00:22.397Z,33.81
2019-02-09T08:01:22.383Z,34.21
2019-02-09T08:02:22.378Z,34.01
2019-02-09T08:03:22.374Z,33.91
2019-02-09T08:04:22.364Z,33.79
2019-02-09T08:05:22.340Z,34.51
2019-02-09T08:06:22.327Z,34.51
2019-02-09T08:07:22.409Z,34.51
2019-02-09T08:08:22.307Z,34.61
2019-02-09T08:09:22.294Z,34.41
2019-02-09T08:10:22.294Z,34.01
2019-02-09T08:11:22.276Z,34.11
2019-02-09T08:12:22.308Z,34.01
2019-02-09T08:13:22.567Z,34.31
2019-02-09T08:14:22.236Z,34.31
2019-02-09T08:15:22.224Z,34.71
2019-02-09T08:16:22.253Z,34.01
2019-02-09T08:17:22.209Z,33.81
2019-02-09T08:18:22.197Z,33.40
2019-02-09T08:19:22.221Z,33.20
2019-02-09T08:20:22.180Z,33.11
2019-02-09T08:21:22.158Z,33.20
2019-02-09T08:22:22.166Z,33.20
2019-02-09T08:23:22.160Z,33.71
2019-02-09T08:24:22.137Z,33.19
2019-02-09T08:25:22.113Z,33.11
2019-02-09T08:26:22.105Z,33.20
2019-02-09T08:27:23.578Z,33.31
2019-02-09T08:28:22.080Z,33.40
2019-02-09T08:29:22.104Z,33.20
2019-02-09T08:30:22.053Z,33.39
2019-02-09T08:31:22.042Z,33.20
2019-02-09T08:32:22.044Z,33.71
2019-02-09T08:33:22.023Z,33.79
2019-02-09T08:34:22.015Z,32.99
2019-02-09T08:35:22.012Z,33.49
2019-02-09T08:36:21.991Z,33.47
2019-02-09T08:37:21.996Z,33.69
2019-02-09T08:38:21.972Z,33.28
2019-02-09T08:39:21.953Z,33.67
2019-02-09T08:40:21.974Z,33.47
2019-02-09T08:41:21.934Z,33.67
2019-02-09T08:42:21.958Z,33.67
2019-02-09T08:43:21.906Z,33.47
2019-02-09T08:44:21.900Z,33.37
2019-02-09T08:45:21.885Z,33.37
2019-02-09T08:46:21.914Z,33.28
2019-02-09T08:47:21.898Z,33.49
2019-02-09T08:48:21.859Z,33.69
2019-02-09T08:49:21.859Z,33.39
2019-02-09T08:50:21.880Z,33.49
2019-02-09T08:51:21.816Z,33.79
2019-02-09T08:52:21.812Z,33.19
2019-02-09T08:53:21.816Z,33.59
2019-02-09T08:54:21.787Z,33.49
2019-02-09T08:55:21.832Z,33.89
2019-02-09T08:56:21.763Z,33.59
2019-02-09T08:57:21.807Z,33.89
2019-02-09T08:58:21.737Z,33.49
2019-02-09T08:59:21.727Z,33.69
2019-02-09T09:00:21.718Z,33.49
2019-02-09T09:01:21.708Z,33.59
2019-02-09T09:02:21.732Z,33.79
2019-02-09T09:03:21.723Z,33.59
2019-02-09T09:04:21.692Z,33.79
2019-02-09T09:05:21.659Z,33.79
2019-02-09T09:06:21.646Z,33.69
2019-02-09T09:07:21.650Z,33.69
2019-02-09T09:08:21.652Z,33.59
2019-02-09T09:09:21.632Z,33.59
2019-02-09T09:10:21.615Z,33.79
2019-02-09T09:11:21.592Z,33.69
2019-02-09T09:12:21.580Z,33.29
2019-02-09T09:13:21.590Z,33.39
2019-02-09T09:14:21.559Z,33.39
2019-02-09T09:15:21.545Z,33.59
2019-02-09T09:16:21.575Z,33.69
2019-02-09T09:17:21.547Z,33.49
2019-02-09T09:18:21.522Z,33.39
2019-02-09T09:19:21.512Z,33.79
2019-02-09T09:20:21.504Z,33.49
2019-02-09T09:21:21.478Z,33.59
2019-02-09T09:22:21.469Z,33.29
2019-02-09T09:23:21.470Z,33.69
2019-02-09T09:24:21.504Z,33.19
2019-02-09T09:25:21.463Z,33.19
2019-02-09T09:26:21.421Z,32.97
2019-02-09T09:27:21.424Z,33.17
2019-02-09T09:28:21.418Z,33.07
2019-02-09T09:29:21.394Z,33.07
2019-02-09T09:30:21.380Z,32.47
2019-02-09T09:31:21.457Z,32.87
2019-02-09T09:32:28.496Z,32.67
2019-02-09T09:33:22.384Z,32.99
2019-02-09T09:34:21.332Z,32.47
2019-02-09T09:35:21.320Z,32.97
2019-02-09T09:36:21.382Z,32.99
2019-02-09T09:37:21.325Z,32.97
2019-02-09T09:38:21.353Z,32.47
2019-02-09T09:39:21.284Z,32.47
2019-02-09T09:40:21.268Z,32.69
2019-02-09T09:41:21.264Z,32.99
2019-02-09T09:42:21.241Z,32.89
2019-02-09T09:43:21.241Z,33.19
2019-02-09T09:44:21.260Z,33.19
2019-02-09T09:45:21.208Z,32.89
2019-02-09T09:46:21.200Z,32.89
2019-02-09T09:47:21.192Z,32.59
2019-02-09T09:48:21.185Z,32.99
2019-02-09T09:49:21.166Z,32.69
2019-02-09T09:50:21.202Z,32.99
2019-02-09T09:51:21.142Z,32.99
2019-02-09T09:52:21.133Z,32.79
2019-02-09T09:53:21.131Z,33.19
2019-02-09T09:54:21.107Z,32.59
2019-02-09T09:55:21.206Z,33.09
2019-02-09T09:56:21.090Z,32.69
2019-02-09T09:57:21.109Z,32.99
2019-02-09T09:58:21.077Z,32.69
2019-02-09T09:59:21.053Z,33.19
2019-02-09T10:00:21.042Z,33.29
2019-02-09T10:01:21.030Z,32.99
2019-02-09T10:02:21.017Z,33.19
2019-02-09T10:03:21.057Z,32.99
2019-02-09T10:04:21.074Z,33.19
2019-02-09T10:05:20.994Z,33.19
2019-02-09T10:06:21.032Z,33.19
2019-02-09T10:07:20.964Z,32.69
2019-02-09T10:08:20.966Z,33.19
2019-02-09T10:09:20.956Z,33.19
2019-02-09T10:10:20.927Z,33.29
2019-02-09T10:11:20.916Z,32.79
2019-02-09T10:12:20.918Z,33.19
2019-02-09T10:13:20.903Z,32.49
2019-02-09T10:14:20.900Z,32.69
2019-02-09T10:15:20.871Z,32.07
2019-02-09T10:16:20.873Z,31.87
2019-02-09T10:17:20.872Z,32.07
2019-02-09T10:18:20.857Z,32.17
2019-02-09T10:19:20.828Z,32.47
2019-02-09T10:20:20.812Z,31.57
2019-02-09T10:21:20.808Z,32.17
2019-02-09T10:22:20.810Z,31.57
2019-02-09T10:23:20.814Z,31.77
2019-02-09T10:24:20.772Z,31.77
2019-02-09T10:25:20.867Z,31.85
2019-02-09T10:26:20.765Z,31.57
2019-02-09T10:27:20.779Z,31.97
2019-02-09T10:28:20.736Z,31.77
2019-02-09T10:29:20.758Z,32.47
2019-02-09T10:30:20.760Z,32.47
2019-02-09T10:31:20.701Z,32.17
2019-02-09T10:32:20.761Z,32.37
2019-02-09T10:33:20.731Z,32.17
2019-02-09T10:34:20.698Z,31.87
2019-02-09T10:35:20.659Z,32.77
2019-02-09T10:36:20.632Z,32.37
2019-02-09T10:37:20.624Z,32.37
2019-02-09T10:38:20.642Z,32.47
2019-02-09T10:39:20.627Z,32.37
2019-02-09T10:40:20.602Z,32.47
2019-02-09T10:41:20.591Z,32.37
2019-02-09T10:42:20.566Z,32.27
2019-02-09T10:43:20.737Z,32.27
2019-02-09T10:44:20.560Z,32.47
2019-02-09T10:45:20.529Z,32.47
2019-02-09T10:46:20.518Z,32.57
2019-02-09T10:47:20.516Z,32.29
2019-02-09T10:48:20.516Z,32.17
2019-02-09T10:49:20.517Z,32.37
2019-02-09T10:50:20.507Z,32.77
2019-02-09T10:51:20.479Z,32.57
2019-02-09T10:52:20.516Z,32.57
2019-02-09T10:53:20.441Z,32.47
2019-02-09T10:54:20.575Z,32.17
2019-02-09T10:55:20.482Z,31.87
2019-02-09T10:56:20.409Z,31.87
2019-02-09T10:57:20.401Z,31.97
2019-02-09T10:58:20.607Z,31.67
2019-02-09T10:59:20.391Z,32.07
2019-02-09T11:00:20.370Z,32.47
2019-02-09T11:01:20.369Z,32.09
2019-02-09T11:02:20.414Z,31.97
2019-02-09T11:03:20.345Z,31.87
2019-02-09T11:04:20.417Z,31.87
2019-02-09T11:05:20.384Z,31.77
2019-02-09T11:06:20.296Z,31.77
2019-02-09T11:07:20.331Z,31.87
2019-02-09T11:08:20.272Z,32.17
2019-02-09T11:09:20.280Z,32.17
2019-02-09T11:10:20.250Z,32.06
2019-02-09T11:11:20.241Z,31.85
2019-02-09T11:12:20.252Z,31.87
2019-02-09T11:13:20.219Z,32.27
2019-02-09T11:14:20.220Z,32.07
2019-02-09T11:15:20.191Z,31.77
2019-02-09T11:16:20.199Z,31.87
2019-02-09T11:17:20.228Z,32.15
2019-02-09T11:18:20.158Z,32.37
2019-02-09T11:19:20.156Z,31.87
2019-02-09T11:20:20.155Z,32.17
2019-02-09T11:21:20.175Z,31.97
2019-02-09T11:22:20.120Z,32.07
2019-02-09T11:23:20.143Z,32.07
2019-02-09T11:24:20.093Z,32.07
2019-02-09T11:25:20.125Z,32.07
2019-02-09T11:26:20.069Z,31.97
2019-02-09T11:27:20.059Z,31.97
2019-02-09T11:28:20.045Z,31.97
2019-02-09T11:29:20.109Z,32.17
2019-02-09T11:30:20.055Z,31.97
2019-02-09T11:31:20.020Z,31.87
2019-02-09T11:32:20.007Z,32.37
2019-02-09T11:33:19.993Z,31.97
2019-02-09T11:34:19.992Z,32.47
2019-02-09T11:35:19.978Z,31.87
2019-02-09T11:36:19.982Z,31.87
2019-02-09T11:37:19.978Z,32.27
2019-02-09T11:38:19.933Z,32.37
2019-02-09T11:39:19.967Z,32.37
2019-02-09T11:40:19.914Z,32.37
2019-02-09T11:41:20.146Z,31.97
2019-02-09T11:42:19.906Z,31.97
2019-02-09T11:43:20.072Z,32.29
2019-02-09T11:44:19.871Z,31.97
2019-02-09T11:45:19.887Z,32.07
2019-02-09T11:46:19.846Z,32.17
2019-02-09T11:47:19.832Z,31.87
2019-02-09T11:48:19.824Z,32.37
2019-02-09T11:49:19.874Z,31.87
2019-02-09T11:50:19.822Z,32.47
2019-02-09T11:51:19.795Z,31.57
2019-02-09T11:52:19.780Z,32.07
2019-02-09T11:53:19.792Z,32.37
2019-02-09T11:54:19.756Z,32.37
2019-02-09T11:55:19.888Z,32.47
2019-02-09T11:56:19.729Z,31.47
2019-02-09T11:57:19.716Z,31.97
2019-02-09T11:58:19.743Z,31.46
2019-02-09T11:59:21.293Z,31.57
2019-02-09T12:00:19.704Z,32.07
2019-02-09T12:01:19.672Z,32.27
2019-02-09T12:02:19.987Z,31.97
2019-02-09T12:03:19.782Z,31.96
2019-02-09T12:04:19.686Z,31.65
2019-02-09T12:05:19.655Z,31.15
2019-02-09T12:06:19.657Z,31.27
2019-02-09T12:07:19.610Z,31.17
2019-02-09T12:08:19.595Z,31.05
2019-02-09T12:09:19.588Z,31.17
2019-02-09T12:10:19.992Z,30.85
2019-02-09T12:11:19.671Z,32.15
2019-02-09T12:12:19.598Z,31.97
2019-02-09T12:13:19.558Z,30.77
2019-02-09T12:14:19.551Z,32.07
2019-02-09T12:15:19.542Z,31.97
2019-02-09T12:16:19.505Z,31.77
2019-02-09T12:17:19.508Z,31.27
2019-02-09T12:18:19.491Z,31.27
2019-02-09T12:19:19.517Z,30.87
2019-02-09T12:20:19.475Z,31.07
2019-02-09T12:21:19.457Z,31.07
2019-02-09T12:22:19.541Z,31.05
2019-02-09T12:23:19.431Z,31.07
2019-02-09T12:24:19.431Z,31.27
2019-02-09T12:25:19.537Z,31.05
2019-02-09T12:26:19.420Z,31.07
2019-02-09T12:27:19.431Z,31.07
2019-02-09T12:28:19.369Z,30.97
2019-02-09T12:29:19.366Z,31.07
2019-02-09T12:30:19.355Z,31.07
2019-02-09T12:31:19.335Z,31.17
2019-02-09T12:32:19.347Z,30.95
2019-02-09T12:33:23.252Z,31.07
2019-02-09T12:34:19.302Z,31.47
2019-02-09T12:35:19.298Z,31.35
2019-02-09T12:36:19.309Z,31.47
2019-02-09T12:37:19.295Z,31.15
2019-02-09T12:38:19.261Z,31.05
2019-02-09T12:39:19.244Z,31.05
2019-02-09T12:40:19.258Z,31.05
2019-02-09T12:41:19.230Z,31.15
2019-02-09T12:42:19.241Z,31.15
2019-02-09T12:43:19.203Z,30.95
2019-02-09T12:44:19.291Z,31.26
2019-02-09T12:45:19.189Z,31.15
2019-02-09T12:46:19.164Z,31.15
2019-02-09T12:47:19.222Z,31.15
2019-02-09T12:48:19.142Z,31.15
2019-02-09T12:49:19.144Z,31.05
2019-02-09T12:50:19.188Z,31.05
2019-02-09T12:51:19.112Z,30.85
2019-02-09T12:52:19.110Z,30.65